createdAt,value
2019-03-12T00:00:29.432Z,5.31
2019-03-12T00:03:59.560Z,3.96
2019-03-12T00:07:29.658Z,5.21
2019-03-12T00:10:59.766Z,3.12
2019-03-12T00:14:29.825Z,4.26
2019-03-12T00:17:59.938Z,3.41
2019-03-12T00:21:30.089Z,2.89
2019-03-12T00:25:00.196Z,2.72
2019-03-12T00:28:30.331Z,2.69
2019-03-12T00:32:01.385Z,3.66
2019-03-12T00:35:31.506Z,3.09
2019-03-12T00:39:01.611Z,3.2
2019-03-12T00:42:31.709Z,1.65
2019-03-12T00:46:01.857Z,2.09
2019-03-12T00:49:31.905Z,2.81
2019-03-12T00:53:01.992Z,0.95
2019-03-12T00:56:32.021Z,3.74
2019-03-12T01:00:02.813Z,3.1
2019-03-12T01:03:32.867Z,2.45
2019-03-12T01:07:03.135Z,2.68
2019-03-12T01:10:33.232Z,2.26
2019-03-12T01:14:03.477Z,2.67
2019-03-12T01:17:33.609Z,1.5
2019-03-12T01:21:03.718Z,2.1
2019-03-12T01:24:33.885Z,3.1
2019-03-12T01:28:04.025Z,2.3
2019-03-12T01:31:34.171Z,3.53
2019-03-12T01:35:05.569Z,4.01
2019-03-12T01:38:35.727Z,3.88
2019-03-12T01:42:05.924Z,5.03
2019-03-12T01:45:36.043Z,3.24
2019-03-12T01:49:06.201Z,4.12
2019-03-12T01:52:36.339Z,4.19
2019-03-12T01:56:06.516Z,5.54
2019-03-12T01:59:36.463Z,5.47
2019-03-12T02:00:16.947Z,2.14
2019-03-12T02:03:47.003Z,3.12
2019-03-12T02:07:17.223Z,5.11
2019-03-12T02:10:47.238Z,6.31
2019-03-12T02:14:23.446Z,4.99
2019-03-12T02:17:53.685Z,2.86
2019-03-12T02:21:23.745Z,4.7
2019-03-12T02:24:53.850Z,3.83
2019-03-12T02:28:24.058Z,4.34
2019-03-12T02:31:54.129Z,4.64
2019-03-12T02:35:25.835Z,3.27
2019-03-12T02:38:56.022Z,4.09
2019-03-12T02:42:26.220Z,4.75
2019-03-12T02:45:56.309Z,3.65
2019-03-12T02:49:26.507Z,3.61
2019-03-12T02:52:56.715Z,3.46
2019-03-12T02:56:26.832Z,3.45
2019-03-12T02:59:56.950Z,4.35
2019-03-12T03:03:27.023Z,2.88
2019-03-12T03:07:02.058Z,2.26
2019-03-12T03:10:32.144Z,1.52
2019-03-12T03:14:02.222Z,1.28
2019-03-12T03:17:32.330Z,1.96
2019-03-12T03:21:02.664Z,1.68
2019-03-12T03:24:32.793Z,1.21
2019-03-12T03:28:02.996Z,2.42
2019-03-12T03:31:33.122Z,2.01
2019-03-12T03:35:03.689Z,1.84
2019-03-12T03:38:34.707Z,1.84
2019-03-12T03:42:04.896Z,1.86
2019-03-12T03:45:35.061Z,1.46
2019-03-12T03:49:05.170Z,1.9
2019-03-12T03:52:35.307Z,1.4
2019-03-12T03:56:05.387Z,0.99
2019-03-12T03:59:35.645Z,1.59
2019-03-12T04:00:18.123Z,1.5
2019-03-12T04:03:48.168Z,1
2019-03-12T04:07:18.221Z,1.39
2019-03-12T04:10:48.368Z,0.96
2019-03-12T04:14:18.416Z,1.46
2019-03-12T04:17:48.680Z,1.3
2019-03-12T04:21:18.832Z,1.4
2019-03-12T04:24:48.930Z,2.41
2019-03-12T04:28:19.069Z,1.6
2019-03-12T04:31:49.225Z,0.9
2019-03-12T04:35:20.017Z,1.68
2019-03-12T04:43:53.688Z,1.6
2019-03-12T04:47:23.734Z,1.52
2019-03-12T04:50:53.792Z,1.01
2019-03-12T04:54:23.851Z,1.81
2019-03-12T04:57:53.948Z,1.06
2019-03-12T05:01:23.996Z,2.04
2019-03-12T05:04:54.204Z,1.46
2019-03-12T05:07:13.183Z,2.41
2019-03-12T05:10:43.382Z,2.02
2019-03-12T05:14:24.118Z,1.4
2019-03-12T05:17:54.226Z,1.81
2019-03-12T05:21:24.224Z,1.9
2019-03-12T05:24:54.287Z,1.52
2019-03-12T05:28:24.299Z,1.91
2019-03-12T05:31:54.411Z,2.14
2019-03-12T05:35:24.395Z,2.22
2019-03-12T05:38:54.554Z,1.54
2019-03-12T05:42:24.741Z,1.44
2019-03-12T05:45:54.919Z,0.82
2019-03-12T05:49:25.047Z,1.02
2019-03-12T05:53:09.205Z,1.29
2019-03-12T05:56:39.412Z,1.64
2019-03-12T06:00:13.750Z,1.81
2019-03-12T06:03:43.878Z,1.69
2019-03-12T06:07:13.956Z,1.54
2019-03-12T06:10:44.094Z,1.2
2019-03-12T06:14:14.242Z,1.18
2019-03-12T06:17:44.490Z,1.48
2019-03-12T06:21:14.668Z,1.11
2019-03-12T06:24:44.775Z,1.32
2019-03-12T06:28:14.883Z,0.95
2019-03-12T06:31:59.646Z,1
2019-03-12T06:35:41.139Z,0.69
2019-03-12T06:39:16.872Z,1.12
2019-03-12T06:43:34.576Z,0.59
2019-03-12T06:48:17.951Z,0.49
2019-03-12T06:52:04.471Z,0.95
2019-03-12T06:55:48.176Z,0.45
2019-03-12T06:59:26.104Z,0.68
2019-03-12T07:03:06.982Z,0.68
2019-03-12T07:06:51.739Z,0.44
2019-03-12T07:10:31.637Z,0.84
2019-03-12T07:14:14.855Z,0.5
2019-03-12T07:18:32.872Z,0.5
2019-03-12T07:22:10.699Z,0.79
2019-03-12T07:26:53.406Z,0.65
2019-03-12T07:30:31.604Z,0.61
2019-03-12T07:34:18.165Z,0.59
2019-03-12T07:38:00.001Z,0.62
2019-03-12T07:41:43.997Z,0.55
2019-03-12T07:45:25.365Z,0.73
2019-03-12T07:49:22.082Z,0.34
2019-03-12T07:53:32.498Z,0.41
2019-03-12T07:57:10.557Z,0.68
2019-03-12T08:00:22.395Z,0.59
2019-03-12T08:04:06.144Z,1
2019-03-12T08:10:03.110Z,1.09
2019-03-12T08:13:40.749Z,0.62
2019-03-12T08:17:21.494Z,1.19
2019-03-12T08:21:01.731Z,0.81
2019-03-12T08:24:37.621Z,0.8
2019-03-12T08:28:13.912Z,0.74
2019-03-12T08:32:06.008Z,0.89
2019-03-12T08:35:58.522Z,0.66
2019-03-12T08:39:37.100Z,0.69
2019-03-12T08:43:13.538Z,0.34
2019-03-12T08:47:23.114Z,0.65
2019-03-12T08:51:01.100Z,0.79
2019-03-12T08:54:53.865Z,0.7
2019-03-12T08:58:38.877Z,0.76
2019-03-12T09:02:33.825Z,0.49
2019-03-12T09:07:31.191Z,0.62
2019-03-12T09:11:12.109Z,0.5
2019-03-12T09:17:17.478Z,0.36
2019-03-12T09:20:59.933Z,0.44
2019-03-12T09:24:57.182Z,0.36
2019-03-12T09:28:41.218Z,0.26
2019-03-12T09:32:51.180Z,0.47
2019-03-12T09:36:28.853Z,0.52
2019-03-12T09:40:42.720Z,0.53
2019-03-12T09:44:27.467Z,0.44
2019-03-12T09:48:08.565Z,0.41
2019-03-12T09:51:45.323Z,0.25
2019-03-12T09:55:22.510Z,0.57
2019-03-12T09:58:59.308Z,0.64
2019-03-12T10:02:48.058Z,0.66
2019-03-12T10:06:33.123Z,0.51
2019-03-12T10:10:41.532Z,0.53
2019-03-12T10:14:35.518Z,0.51
2019-03-12T10:18:14.116Z,1.29
2019-03-12T10:24:17.952Z,0.76
2019-03-12T10:30:21.648Z,0.46
2019-03-12T10:34:09.794Z,0.83
2019-03-12T10:40:56.551Z,0.89
2019-03-12T10:44:37.489Z,1.29
2019-03-12T10:48:07.669Z,1.49
2019-03-12T10:51:37.644Z,1.04
2019-03-12T10:55:13.547Z,1.14
2019-03-12T10:58:44.041Z,1.24
2019-03-12T11:02:14.228Z,0.46
2019-03-12T11:05:46.217Z,1.55
2019-03-12T11:09:16.534Z,1.34
2019-03-12T11:12:46.733Z,1.5
2019-03-12T11:16:16.940Z,1.76
2019-03-12T11:19:47.027Z,0.91
2019-03-12T11:23:17.135Z,1.88
2019-03-12T11:26:47.143Z,1.55
2019-03-12T11:30:17.381Z,2.14
2019-03-12T11:33:47.489Z,1.55
2019-03-12T11:37:17.627Z,1.31
2019-03-12T11:40:47.728Z,1.81
2019-03-12T11:44:17.982Z,2.23
2019-03-12T11:47:48.384Z,1.01
2019-03-12T11:51:18.744Z,1.14
2019-03-12T11:54:49.204Z,1.46
2019-03-12T11:58:19.575Z,0.81
2019-03-12T12:00:20.457Z,1.82
2019-03-12T12:03:50.721Z,1.32
2019-03-12T12:07:20.868Z,1.3
2019-03-12T12:10:51.066Z,0.56
2019-03-12T12:14:21.260Z,0.95
2019-03-12T12:17:51.482Z,1.27
2019-03-12T12:21:21.663Z,1.48
2019-03-12T12:24:51.729Z,1.64
2019-03-12T12:28:22.006Z,1.14
2019-03-12T12:31:52.275Z,0.96
2019-03-12T12:35:22.421Z,1.61
2019-03-12T12:38:52.523Z,1.61
2019-03-12T12:42:22.673Z,1.16
2019-03-12T12:45:52.725Z,1.56
2019-03-12T12:49:22.773Z,1.8
2019-03-12T12:52:52.931Z,1.31
2019-03-12T12:56:23.071Z,1.6
2019-03-12T12:59:54.207Z,1.55
2019-03-12T13:03:24.347Z,1.04
2019-03-12T13:06:54.450Z,1.92
2019-03-12T13:10:24.543Z,1.14
2019-03-12T13:13:54.669Z,1.49
2019-03-12T13:17:24.817Z,1.71
2019-03-12T13:20:54.855Z,1.43
2019-03-12T13:24:24.983Z,1.69
2019-03-12T13:27:55.030Z,1.34
2019-03-12T13:31:25.118Z,1.31
2019-03-12T13:34:55.198Z,1.01
2019-03-12T13:38:25.455Z,1.12
2019-03-12T13:41:55.712Z,1.46
2019-03-12T13:45:25.971Z,1.36
2019-03-12T13:48:56.110Z,1.22
2019-03-12T13:52:26.228Z,1.04
2019-03-12T13:55:56.343Z,0.94
2019-03-12T13:59:27.705Z,0.77
2019-03-12T14:00:18.265Z,1.45
2019-03-12T14:03:48.298Z,1.52
2019-03-12T14:07:18.347Z,1.29
2019-03-12T14:10:48.445Z,2.06
2019-03-12T14:14:18.612Z,1.58
2019-03-12T14:17:48.888Z,1.74
2019-03-12T14:21:19.188Z,2.2
2019-03-12T14:24:49.226Z,0.84
2019-03-12T14:28:19.444Z,1.85
2019-03-12T14:31:49.552Z,2.05
2019-03-12T14:35:19.790Z,1.23
2019-03-12T14:38:49.898Z,1.15
2019-03-12T14:42:19.925Z,1.57
2019-03-12T14:45:50.585Z,1.11
2019-03-12T14:49:20.722Z,1.51
2019-03-12T14:52:54.569Z,1.8
2019-03-12T14:56:26.818Z,1.91
2019-03-12T14:59:56.904Z,1.5
2019-03-12T15:03:28.702Z,0.94
2019-03-12T15:06:58.980Z,1.75
2019-03-12T15:10:29.038Z,1.05
2019-03-12T15:13:59.176Z,0.9
2019-03-12T15:17:29.307Z,1.34
2019-03-12T15:20:59.501Z,1.75
2019-03-12T15:24:29.589Z,1.73
2019-03-12T15:27:59.759Z,1.85
2019-03-12T15:31:29.921Z,1.5
2019-03-12T15:35:00.073Z,1.04
2019-03-12T15:38:30.151Z,1.74
2019-03-12T15:42:00.304Z,1.11
2019-03-12T15:45:30.351Z,1.25
2019-03-12T15:49:00.474Z,1.29
2019-03-12T15:52:30.517Z,1.7
2019-03-12T15:56:00.662Z,1.4
2019-03-12T15:59:30.698Z,1.45
2019-03-12T16:00:16.075Z,1.49
2019-03-12T16:03:47.086Z,1.09
2019-03-12T16:07:17.154Z,0.97
2019-03-12T16:10:57.378Z,0.91
2019-03-12T16:14:28.219Z,2.34
2019-03-12T16:17:58.297Z,0.82
2019-03-12T16:21:28.424Z,1.31
2019-03-12T16:24:58.775Z,1.31
2019-03-12T16:28:28.868Z,0.96
2019-03-12T16:31:58.939Z,1.14
2019-03-12T16:35:29.106Z,1.1
2019-03-12T16:38:59.243Z,1.1
2019-03-12T16:42:34.874Z,1.64
2019-03-12T16:46:05.537Z,1.43
2019-03-12T16:49:35.544Z,1.15
2019-03-12T16:53:05.773Z,1.35
2019-03-12T16:56:45.371Z,1.43
2019-03-12T17:00:15.966Z,1.79
2019-03-12T17:03:46.043Z,1.29
2019-03-12T17:07:17.076Z,0.69
2019-03-12T17:10:56.008Z,1.25
2019-03-12T17:14:38.342Z,1.39
2019-03-12T17:18:09.181Z,1.12
2019-03-12T17:21:39.249Z,0.97
2019-03-12T17:25:09.416Z,1.73
2019-03-12T17:29:03.124Z,1.36
2019-03-12T17:32:33.223Z,1.21
2019-03-12T17:36:03.473Z,1.34
2019-03-12T17:39:33.487Z,1.01
2019-03-12T17:43:03.689Z,1.64
2019-03-12T17:46:33.757Z,1.26
2019-03-12T17:50:04.092Z,0.95
2019-03-12T17:53:34.201Z,0.95
2019-03-12T17:57:04.329Z,1.09
2019-03-12T18:00:17.007Z,1.85
2019-03-12T18:03:47.107Z,1.39
2019-03-12T18:07:17.342Z,1.35
2019-03-12T18:10:47.363Z,1.38
2019-03-12T18:14:17.509Z,1.51
2019-03-12T18:17:47.768Z,1.3
2019-03-12T18:21:17.816Z,1.6
2019-03-12T18:24:47.952Z,1.35
2019-03-12T18:28:18.050Z,1.94
2019-03-12T18:31:48.215Z,2.17
2019-03-12T18:35:18.342Z,1.66
2019-03-12T18:38:48.526Z,0.82
2019-03-12T18:42:18.693Z,1.56
2019-03-12T18:45:48.860Z,1.77
2019-03-12T18:49:19.029Z,1.11
2019-03-12T18:52:49.141Z,1.25
2019-03-12T18:56:19.317Z,1.98
2019-03-12T18:59:49.456Z,2.16
2019-03-12T19:03:19.554Z,1.69
2019-03-12T19:06:49.698Z,1.91
2019-03-12T19:10:20.996Z,0.86
2019-03-12T19:13:51.114Z,2.12
2019-03-12T19:17:21.284Z,2.41
2019-03-12T19:20:51.430Z,2.61
2019-03-12T19:24:21.648Z,1.99
2019-03-12T19:27:59.656Z,2.16
2019-03-12T19:31:44.077Z,2.65
2019-03-12T19:35:14.342Z,0.74
2019-03-12T19:38:44.441Z,1.39
2019-03-12T19:42:14.821Z,1.19
2019-03-12T19:45:45.056Z,4.29
2019-03-12T19:49:15.285Z,2.84
2019-03-12T19:52:45.372Z,1.69
2019-03-12T19:56:15.570Z,2.12
2019-03-12T19:59:45.669Z,1.29
2019-03-12T20:00:16.473Z,2.88
2019-03-12T20:03:46.606Z,2.46
2019-03-12T20:07:16.661Z,2.58
2019-03-12T20:49:11.400Z,2.25
2019-03-12T20:53:04.558Z,1.42
2019-03-12T20:57:05.195Z,2.34
2019-03-12T21:03:58.611Z,2.34
2019-03-12T21:16:26.393Z,1.8
2019-03-12T21:22:49.941Z,1.94
2019-03-12T21:26:49.980Z,2.21
2019-03-12T21:30:25.780Z,2.46
2019-03-12T21:33:55.837Z,2.92
2019-03-12T21:37:25.952Z,2.17
2019-03-12T21:40:56.070Z,0.96
2019-03-12T21:44:26.153Z,1.84
2019-03-12T21:47:56.269Z,2.06
2019-03-12T21:51:26.384Z,2.95
2019-03-12T21:54:56.451Z,2.24
2019-03-12T21:58:26.650Z,2.21
2019-03-12T22:00:16.619Z,2.39
2019-03-12T22:03:46.709Z,1.88
2019-03-12T22:07:16.824Z,2.15
2019-03-12T22:10:47.024Z,1.83
2019-03-12T22:14:18.182Z,2.34
2019-03-12T22:17:48.379Z,2.2
2019-03-12T22:21:22.736Z,2.23
2019-03-12T22:24:52.905Z,1.96
2019-03-12T22:28:22.973Z,1.89
2019-03-12T22:31:53.130Z,2.35
2019-03-12T22:35:23.184Z,1.85
2019-03-12T22:38:53.277Z,2.49
2019-03-12T22:42:23.425Z,2.38
2019-03-12T22:45:53.633Z,2.35
2019-03-12T22:49:23.761Z,2.88
2019-03-12T22:52:53.809Z,3.91
2019-03-12T22:56:23.897Z,2.14
2019-03-12T22:59:54.025Z,3.29
2019-03-12T23:03:24.014Z,4.22
2019-03-12T23:06:54.201Z,4.38
2019-03-12T23:10:24.199Z,2.49
2019-03-12T23:13:54.317Z,2.66
2019-03-12T23:17:25.304Z,3.19
2019-03-12T23:20:55.527Z,4.49
2019-03-12T23:24:25.614Z,3.36
2019-03-12T23:27:55.828Z,3.56
2019-03-12T23:31:25.890Z,4.15
2019-03-12T23:34:56.004Z,3.48
2019-03-12T23:38:26.072Z,3.83
2019-03-12T23:41:56.261Z,3.26
2019-03-12T23:45:26.489Z,3.66
2019-03-12T23:48:56.595Z,3.56
2019-03-12T23:52:26.695Z,4.36
2019-03-12T23:55:56.782Z,3.48
2019-03-12T23:59:26.841Z,3
